KSDF Airport Diagram

We have created a template for each of the higher traffic airports in the vZID airspace. They include KCMH, KCRW, KCVG, KDAY, KIND, KLEX and KSDF. You wil find usefull information including the airport diagram, weather, and specific airport procedures.

KSDF Weather

[Source: ADDS]
METAR
KSDF 190756Z 00000KT 8SM FEW090 OVC170 05/02 A3010 RMK AO2 SLP196 T00500017 =
TAF
KSDF 190520Z 1906/2012 VRB04KT P6SM BKN150 FM191700 11004KT P6SM VCSH OVC040 FM191900 11006KT 4SM -SHRA OVC015 FM192300 11006KT 2SM -RA BR OVC008 FM200300 11004KT 2SM RA BR OVC005 =

SDF Operations

Calm Wind Configuration is runways 17L and 17R

Runway 17L typically departs north and east

Runway 17R typicall departs south and west

 

JSN Epic template designed by JoomlaShine.com